Time;durP1;ratioP1;P1;durP2;ratioP2;P2;SDS_P1;SDS_P2;PMS_P1;PMS_P2;Temp;Humidity;BMP_temperature;BMP_pressure;BME280_temperature;BME280_humidity;BME280_pressure;Samples;Min_cycle;Max_cycle;Signal;HPM_P1;HPM_P2
2022/06/01 00:00:12;;;;;;;12.73;8.50;;;14.10;99.90;;;;;;5271234;28;20040;-77
2022/06/01 00:02:42;;;;;;;17.08;9.52;;;14.40;99.90;;;;;;5271466;28;20038;-77
2022/06/01 00:05:13;;;;;;;13.35;8.43;;;14.50;99.90;;;;;;5271494;28;20028;-77
2022/06/01 00:07:44;;;;;;;13.45;9.40;;;14.40;99.90;;;;;;5271425;28;20035;-77
2022/06/01 00:10:16;;;;;;;17.15;10.48;;;14.20;99.90;;;;;;5271464;28;20020;-77
2022/06/01 00:12:47;;;;;;;13.57;9.35;;;14.30;99.90;;;;;;5271342;28;20468;-77
2022/06/01 00:15:19;;;;;;;14.85;9.02;;;14.50;99.90;;;;;;5271255;28;20118;-76
2022/06/01 00:17:50;;;;;;;12.25;8.63;;;14.50;99.90;;;;;;5271120;28;20440;-76
2022/06/01 00:20:21;;;;;;;11.35;8.40;;;14.30;99.90;;;;;;5271067;28;20028;-77
2022/06/01 00:22:52;;;;;;;12.75;8.88;;;13.90;99.90;;;;;;5271009;28;20025;-77
2022/06/01 00:25:24;;;;;;;12.50;9.32;;;14.00;99.90;;;;;;5271096;28;20078;-77
2022/06/01 00:27:55;;;;;;;11.88;8.77;;;14.40;99.90;;;;;;5252908;28;20435;-77
2022/06/01 00:30:26;;;;;;;13.10;8.45;;;14.60;99.90;;;;;;5270833;28;20035;-77
2022/06/01 00:32:57;;;;;;;15.32;8.27;;;14.70;99.90;;;;;;5270866;28;20471;-77
2022/06/01 00:35:29;;;;;;;11.38;9.10;;;14.20;99.90;;;;;;5270803;28;20089;-77
2022/06/01 00:37:59;;;;;;;11.85;9.27;;;14.00;99.90;;;;;;5270876;28;20059;-77
2022/06/01 00:40:31;;;;;;;15.05;8.95;;;14.00;99.90;;;;;;5270854;28;20052;-77
2022/06/01 00:43:21;;;;;;;10.95;8.52;;;14.00;99.90;;;;;;5270703;28;20028;-77
2022/06/01 00:45:52;;;;;;;9.73;8.30;;;14.30;99.90;;;;;;5270624;28;20038;-77
2022/06/01 00:48:28;;;;;;;11.55;7.90;;;14.10;99.90;;;;;;5269537;28;20102;-77
2022/06/01 00:50:59;;;;;;;9.68;7.70;;;14.00;99.90;;;;;;5270537;28;20028;-77
2022/06/01 00:53:34;;;;;;;12.23;7.82;;;14.20;99.90;;;;;;5270439;28;20028;-77
2022/06/01 00:56:10;;;;;;;11.75;7.43;;;14.10;99.90;;;;;;5270374;28;20036;-77
2022/06/01 00:58:44;;;;;;;13.30;8.18;;;13.80;99.90;;;;;;5270419;28;20024;-77
2022/06/01 01:01:20;;;;;;;14.05;7.95;;;13.80;99.90;;;;;;5270028;28;20127;-77
2022/06/01 01:03:56;;;;;;;12.02;8.13;;;13.70;99.90;;;;;;5270318;28;20020;-77
2022/06/01 01:06:30;;;;;;;10.98;7.43;;;13.80;99.90;;;;;;5270233;28;20113;-77
2022/06/01 01:09:02;;;;;;;9.50;7.53;;;14.20;99.90;;;;;;5270257;28;20398;-77
2022/06/01 01:11:48;;;;;;;9.20;7.70;;;14.20;99.90;;;;;;5270129;28;20032;-77
2022/06/01 01:14:22;;;;;;;9.77;7.72;;;14.20;99.90;;;;;;5270374;28;20036;-77
2022/06/01 01:16:54;;;;;;;10.85;7.35;;;13.80;99.90;;;;;;5270300;28;20035;-77
2022/06/01 01:19:34;;;;;;;8.82;6.63;;;13.80;99.90;;;;;;5269832;28;20104;-77
2022/06/01 01:22:40;;;;;;;9.02;7.63;;;13.90;99.90;;;;;;5270297;28;20560;-76
2022/06/01 01:25:16;;;;;;;9.88;7.47;;;14.10;99.90;;;;;;5164617;28;20530;-77
2022/06/01 01:27:48;;;;;;;9.93;7.53;;;13.40;99.90;;;;;;5256113;28;20032;-77
2022/06/01 01:30:36;;;;;;;9.25;7.65;;;13.40;99.90;;;;;;5269599;28;20028;-77
2022/06/01 01:33:20;;;;;;;10.57;8.30;;;13.60;99.90;;;;;;5269789;28;20477;-77
2022/06/01 01:35:59;;;;;;;11.10;8.23;;;13.50;99.90;;;;;;5269634;28;20082;-77
2022/06/01 01:39:03;;;;;;;11.88;8.00;;;13.60;99.90;;;;;;5269651;28;20040;-76
2022/06/01 01:41:50;;;;;;;10.75;8.65;;;13.60;99.90;;;;;;5269563;28;20039;-77
2022/06/01 01:44:40;;;;;;;10.13;7.22;;;13.70;99.90;;;;;;5269568;28;20024;-77
2022/06/01 01:47:12;;;;;;;12.23;7.25;;;14.10;99.90;;;;;;5269600;28;20418;-77
2022/06/01 01:49:43;;;;;;;12.43;6.50;;;13.70;99.90;;;;;;5269342;28;20085;-77
2022/06/01 01:52:17;;;;;;;10.88;7.32;;;13.40;99.90;;;;;;5269590;28;20028;-77
2022/06/01 01:55:01;;;;;;;10.68;7.55;;;13.30;99.90;;;;;;5269211;28;20043;-77
2022/06/01 01:57:47;;;;;;;8.65;7.32;;;13.10;99.90;;;;;;5269215;28;20020;-77
2022/06/01 02:00:31;;;;;;;8.77;7.63;;;13.60;99.90;;;;;;5268867;28;20032;-77
2022/06/01 02:03:19;;;;;;;9.90;7.10;;;13.60;99.90;;;;;;5269452;28;20476;-77
2022/06/01 02:06:08;;;;;;;11.00;7.88;;;13.50;99.90;;;;;;5269120;28;20094;-77
2022/06/01 02:08:46;;;;;;;13.40;9.10;;;13.20;99.90;;;;;;5269046;28;20035;-77
2022/06/01 02:14:51;;;;;;;9.35;7.13;;;13.40;99.90;;;;;;5269134;28;20032;-77
2022/06/01 02:17:40;;;;;;;9.23;7.25;;;13.40;99.90;;;;;;5268960;28;20028;-77
2022/06/01 02:20:15;;;;;;;12.25;8.73;;;13.60;99.90;;;;;;5269175;28;20436;-77
2022/06/01 02:22:46;;;;;;;13.98;7.30;;;13.40;99.90;;;;;;5268790;28;20028;-76
2022/06/01 02:25:17;;;;;;;9.75;7.90;;;13.20;99.90;;;;;;5268811;28;20016;-77
2022/06/01 02:27:51;;;;;;;10.43;7.50;;;13.20;99.90;;;;;;5269067;28;20106;-77
2022/06/01 02:30:27;;;;;;;10.55;8.35;;;13.20;99.90;;;;;;5268660;28;20027;-77
2022/06/01 02:33:00;;;;;;;10.48;7.43;;;13.40;99.90;;;;;;5268807;28;20159;-77
2022/06/01 02:35:37;;;;;;;10.95;7.38;;;13.30;99.90;;;;;;5268655;28;20036;-77
2022/06/01 02:38:20;;;;;;;9.35;7.38;;;13.80;99.90;;;;;;5268755;28;20056;-77
2022/06/01 02:40:52;;;;;;;9.40;6.97;;;13.60;99.90;;;;;;5268706;28;20040;-77
2022/06/01 02:43:23;;;;;;;11.85;7.45;;;13.20;99.90;;;;;;5268699;28;20097;-77
2022/06/01 02:45:54;;;;;;;9.82;8.23;;;13.20;99.90;;;;;;5268456;28;20024;-77
2022/06/01 02:48:24;;;;;;;12.48;7.97;;;13.20;99.90;;;;;;5268520;28;20028;-77
2022/06/01 02:50:55;;;;;;;10.60;7.70;;;13.30;99.90;;;;;;5268566;28;20020;-77
2022/06/01 02:53:26;;;;;;;12.07;8.45;;;13.40;99.90;;;;;;5268481;28;20024;-77
2022/06/01 02:55:57;;;;;;;10.23;7.97;;;13.50;99.90;;;;;;5268562;28;20028;-77
2022/06/01 02:58:28;;;;;;;11.95;7.55;;;13.70;99.90;;;;;;5268408;28;20349;-77
2022/06/01 03:00:59;;;;;;;9.60;8.05;;;13.20;99.90;;;;;;5268159;28;20060;-77
2022/06/01 03:03:30;;;;;;;14.07;8.40;;;13.30;99.90;;;;;;5268372;28;20036;-77
2022/06/01 03:06:01;;;;;;;11.27;7.45;;;13.60;99.90;;;;;;5268357;28;20050;-77
2022/06/01 03:08:32;;;;;;;10.32;7.70;;;13.60;99.90;;;;;;5268349;28;20020;-77
2022/06/01 03:11:03;;;;;;;10.23;8.57;;;13.10;99.90;;;;;;5270355;28;20447;-77
2022/06/01 03:13:34;;;;;;;12.77;8.32;;;13.00;99.90;;;;;;5272367;28;20024;-77
2022/06/01 03:16:05;;;;;;;12.15;8.52;;;13.30;99.90;;;;;;5272494;28;20024;-77
2022/06/01 03:18:36;;;;;;;12.98;7.97;;;13.30;99.90;;;;;;5272260;28;20046;-77
2022/06/01 03:21:08;;;;;;;9.73;7.03;;;13.30;99.90;;;;;;5272264;28;20489;-77
2022/06/01 03:23:40;;;;;;;10.10;8.02;;;13.70;99.90;;;;;;5272552;28;20043;-77
2022/06/01 03:26:12;;;;;;;10.35;7.95;;;14.00;99.90;;;;;;5272210;28;20027;-77
2022/06/01 03:28:43;;;;;;;10.82;7.47;;;13.80;99.90;;;;;;5272192;28;20020;-77
2022/06/01 03:31:14;;;;;;;8.95;7.75;;;13.80;99.90;;;;;;5272022;28;20387;-77
2022/06/01 03:33:44;;;;;;;10.15;7.93;;;14.00;99.90;;;;;;5272034;28;20028;-77
2022/06/01 03:36:15;;;;;;;9.85;7.53;;;13.90;99.90;;;;;;5272087;28;20028;-77
2022/06/01 03:38:46;;;;;;;9.95;7.78;;;14.10;99.90;;;;;;5271976;28;20024;-77
2022/06/01 03:41:17;;;;;;;11.30;7.53;;;14.00;99.90;;;;;;5272013;28;20060;-77
2022/06/01 03:46:37;;;;;;;11.95;8.73;;;13.90;99.90;;;;;;5271963;28;20020;-77
2022/06/01 03:49:08;;;;;;;10.73;8.15;;;14.20;99.90;;;;;;5271956;28;20036;-77
2022/06/01 03:51:39;;;;;;;13.55;7.78;;;14.30;99.90;;;;;;5271740;28;20494;-77
2022/06/01 03:54:10;;;;;;;11.65;7.90;;;14.50;99.90;;;;;;5253474;28;20036;-77
2022/06/01 03:56:40;;;;;;;12.38;8.60;;;14.30;99.90;;;;;;5271863;28;20024;-77
2022/06/01 03:59:11;;;;;;;14.27;8.30;;;14.20;99.90;;;;;;5271387;28;20028;-77
2022/06/01 04:01:42;;;;;;;11.57;8.18;;;14.50;99.90;;;;;;5271343;28;20071;-77
2022/06/01 04:04:14;;;;;;;11.77;8.50;;;14.50;99.90;;;;;;5271479;28;20043;-77
2022/06/01 04:06:45;;;;;;;11.30;8.38;;;14.70;99.90;;;;;;5271639;28;20024;-77
2022/06/01 04:09:15;;;;;;;11.27;8.50;;;14.90;99.90;;;;;;5271641;28;20031;-77
2022/06/01 04:11:46;;;;;;;11.82;8.38;;;15.10;99.90;;;;;;5271323;28;20146;-77
2022/06/01 04:14:18;;;;;;;10.68;8.98;;;15.20;99.90;;;;;;5271198;28;20036;-77
2022/06/01 04:16:49;;;;;;;11.05;8.43;;;15.10;99.90;;;;;;5271184;28;20028;-77
2022/06/01 04:19:20;;;;;;;10.68;9.05;;;15.30;99.90;;;;;;5271066;28;20028;-77
2022/06/01 04:21:53;;;;;;;16.00;8.95;;;15.30;99.90;;;;;;5271074;28;20035;-77
2022/06/01 04:24:30;;;;;;;15.88;9.50;;;15.40;99.90;;;;;;5271174;28;20117;-77
2022/06/01 04:27:01;;;;;;;12.23;8.68;;;15.00;99.90;;;;;;5271117;28;20016;-77
2022/06/01 04:29:31;;;;;;;12.90;8.88;;;15.30;99.90;;;;;;5270851;28;20065;-77
2022/06/01 04:32:10;;;;;;;10.05;7.93;;;15.50;99.90;;;;;;5270778;28;20376;-76
2022/06/01 04:34:41;;;;;;;10.32;7.65;;;15.80;99.90;;;;;;5270883;28;20067;-77
2022/06/01 04:37:12;;;;;;;11.00;6.90;;;15.90;99.90;;;;;;5270975;28;20489;-77
2022/06/01 04:39:43;;;;;;;9.27;7.28;;;15.90;99.90;;;;;;5270654;28;20170;-77
2022/06/01 04:42:14;;;;;;;11.30;8.27;;;16.10;99.90;;;;;;5270688;28;20471;-77
2022/06/01 04:44:46;;;;;;;11.45;8.18;;;16.20;99.90;;;;;;5252448;28;20024;-77
2022/06/01 04:47:18;;;;;;;11.48;8.13;;;16.40;99.90;;;;;;5270606;28;20099;-77
2022/06/01 04:49:49;;;;;;;12.85;8.60;;;16.80;99.90;;;;;;5270983;28;20356;-77
2022/06/01 04:52:20;;;;;;;10.13;8.20;;;16.80;99.90;;;;;;5270584;28;20021;-78
2022/06/01 04:54:51;;;;;;;11.52;9.30;;;16.80;99.90;;;;;;5252031;28;20040;-77
2022/06/01 04:57:22;;;;;;;10.73;8.23;;;16.90;99.90;;;;;;5270317;28;20020;-77
2022/06/01 04:59:53;;;;;;;13.23;8.23;;;17.00;99.90;;;;;;5269963;28;20509;-77
2022/06/01 05:02:24;;;;;;;11.20;8.20;;;17.60;99.90;;;;;;5270360;28;20557;-77
2022/06/01 05:04:54;;;;;;;10.57;8.15;;;17.70;99.90;;;;;;5270210;28;20020;-77
2022/06/01 05:07:25;;;;;;;14.45;8.43;;;17.60;99.90;;;;;;5252016;28;20028;-77
2022/06/01 05:09:56;;;;;;;12.60;7.97;;;17.50;99.90;;;;;;5254505;28;20102;-77
2022/06/01 05:12:27;;;;;;;11.15;7.55;;;17.60;99.90;;;;;;5290860;28;20065;-78
2022/06/01 05:14:58;;;;;;;10.30;8.13;;;17.80;99.90;;;;;;5291006;28;20105;-77
2022/06/01 05:17:31;;;;;;;10.48;7.85;;;18.00;99.90;;;;;;5290964;28;20019;-77
2022/06/01 05:20:03;;;;;;;12.15;7.90;;;18.00;99.90;;;;;;5290953;28;20016;-77
2022/06/01 05:22:34;;;;;;;9.43;8.20;;;18.20;99.90;;;;;;5290927;28;20038;-77
2022/06/01 05:25:05;;;;;;;14.20;8.25;;;18.40;99.90;;;;;;5290917;28;20024;-77
2022/06/01 05:27:36;;;;;;;10.45;8.07;;;18.70;99.90;;;;;;5290988;28;20058;-76
2022/06/01 05:30:08;;;;;;;10.98;7.28;;;18.90;99.90;;;;;;5291549;28;20466;-77
2022/06/01 05:32:39;;;;;;;12.10;7.28;;;19.10;99.90;;;;;;5291056;28;20040;-77
2022/06/01 05:35:10;;;;;;;11.27;7.00;;;19.30;99.90;;;;;;5291057;28;20031;-76
2022/06/01 05:37:40;;;;;;;10.57;7.13;;;19.50;99.90;;;;;;5272749;28;20429;-76
2022/06/01 05:40:12;;;;;;;10.98;6.40;;;19.80;99.90;;;;;;5291218;28;20019;-76
2022/06/01 05:42:42;;;;;;;9.32;6.85;;;20.00;99.90;;;;;;5291384;28;20028;-76
2022/06/01 05:45:13;;;;;;;9.10;6.95;;;20.80;99.90;;;;;;5291082;28;20023;-76
2022/06/01 05:47:45;;;;;;;7.97;5.57;;;20.80;99.90;;;;;;5272432;28;20463;-76
2022/06/01 05:50:16;;;;;;;9.32;6.07;;;20.90;99.90;;;;;;5290817;28;20110;-77
2022/06/01 05:52:47;;;;;;;6.20;5.30;;;21.20;99.90;;;;;;5291075;28;20034;-76
2022/06/01 05:55:18;;;;;;;7.72;4.85;;;21.40;99.90;;;;;;5290856;28;20039;-76
2022/06/01 05:57:49;;;;;;;6.07;4.68;;;21.90;99.90;;;;;;5291062;28;20031;-76
2022/06/01 06:00:20;;;;;;;10.25;5.38;;;22.00;99.90;;;;;;5290474;28;20043;-76
2022/06/01 06:02:51;;;;;;;6.70;5.35;;;22.10;99.90;;;;;;5290673;28;20032;-76
2022/06/01 06:08:11;;;;;;;7.18;4.65;;;22.50;99.90;;;;;;5290679;28;20114;-75
2022/06/01 06:10:42;;;;;;;6.88;4.80;;;22.30;99.90;;;;;;5290318;28;20102;-76
2022/06/01 06:13:13;;;;;;;7.75;4.75;;;22.40;99.90;;;;;;5272244;28;20344;-76
2022/06/01 06:15:44;;;;;;;5.53;4.50;;;22.70;99.90;;;;;;5291038;28;20090;-76
2022/06/01 06:18:15;;;;;;;6.45;5.13;;;22.70;99.90;;;;;;5290378;28;20085;-76
2022/06/01 06:20:46;;;;;;;10.38;6.07;;;22.70;99.90;;;;;;5290516;28;20060;-76
2022/06/01 06:23:17;;;;;;;8.60;5.85;;;23.00;99.90;;;;;;5290603;28;20016;-76
2022/06/01 06:25:48;;;;;;;7.25;5.13;;;23.20;99.90;;;;;;5290451;28;20090;-76
2022/06/01 06:28:19;;;;;;;9.98;5.28;;;23.10;99.90;;;;;;5290481;28;20344;-76
2022/06/01 06:30:51;;;;;;;9.48;4.88;;;23.10;99.90;;;;;;5290349;28;20044;-76
2022/06/01 06:33:22;;;;;;;6.45;4.90;;;23.40;99.90;;;;;;5290788;28;20436;-76
2022/06/01 06:36:02;;;;;;;9.38;4.85;;;23.30;99.90;;;;;;5290319;28;20360;-76
2022/06/01 06:38:36;;;;;;;8.10;5.18;;;23.30;99.90;;;;;;5290147;28;20032;-76
2022/06/01 06:41:08;;;;;;;9.82;4.05;;;23.30;99.90;;;;;;5290421;28;20098;-75
2022/06/01 06:43:40;;;;;;;7.03;4.47;;;23.50;99.90;;;;;;5290252;28;20027;-76
2022/06/01 06:46:16;;;;;;;11.77;4.38;;;23.80;99.90;;;;;;5290823;28;20034;-76
2022/06/01 06:48:50;;;;;;;8.65;5.00;;;23.60;99.90;;;;;;5292953;28;20043;-76
2022/06/01 06:51:22;;;;;;;8.38;4.63;;;23.90;99.90;;;;;;5292513;28;20108;-76
2022/06/01 06:53:53;;;;;;;8.88;4.60;;;24.10;99.90;;;;;;5275875;28;20031;-76
2022/06/01 06:56:26;;;;;;;7.07;4.70;;;24.40;99.90;;;;;;5293818;28;20364;-76
2022/06/01 06:58:57;;;;;;;6.63;4.05;;;24.60;99.90;;;;;;5293848;28;20020;-76
2022/06/01 07:01:28;;;;;;;6.82;4.28;;;24.10;99.90;;;;;;5293772;28;20054;-76
2022/06/01 07:03:58;;;;;;;6.43;4.78;;;24.30;99.90;;;;;;5293473;28;20032;-75
2022/06/01 07:06:30;;;;;;;7.13;3.80;;;24.40;99.90;;;;;;5293741;28;20065;-76
2022/06/01 07:09:01;;;;;;;7.63;4.20;;;24.40;99.90;;;;;;5261428;28;20032;-75
2022/06/01 07:11:32;;;;;;;7.63;4.50;;;24.70;99.90;;;;;;5293435;28;20074;-76
2022/06/01 07:14:02;;;;;;;9.00;4.40;;;24.70;99.90;;;;;;5289172;28;20028;-75
2022/06/01 07:16:35;;;;;;;5.45;4.03;;;24.50;99.90;;;;;;5254697;28;20441;-75
2022/06/01 07:19:08;;;;;;;5.82;4.32;;;24.70;99.90;;;;;;5273089;28;20093;-75
2022/06/01 07:21:41;;;;;;;7.43;4.00;;;24.60;99.90;;;;;;5273344;28;20024;-76
2022/06/01 07:24:12;;;;;;;6.88;4.45;;;24.70;99.90;;;;;;5272948;28;20020;-75
2022/06/01 07:26:45;;;;;;;7.07;3.72;;;24.70;99.90;;;;;;5272878;28;20073;-76
2022/06/01 07:29:21;;;;;;;9.05;4.13;;;24.80;99.90;;;;;;5279524;28;20041;-77
2022/06/01 07:31:52;;;;;;;6.93;4.50;;;24.80;99.90;;;;;;5293247;28;20067;-76
2022/06/01 07:34:23;;;;;;;6.55;3.60;;;25.10;99.90;;;;;;5293013;28;20078;-75
2022/06/01 07:43:05;;;;;;;7.40;4.15;;;25.00;99.90;;;;;;5293097;28;20413;-75
2022/06/01 07:43:06;;;;;;;6.85;3.40;;;25.40;99.90;;;;;;5227929;28;20032;-76
2022/06/01 07:45:43;;;;;;;6.60;3.47;;;25.40;99.90;;;;;;5228154;28;20033;-76
2022/06/01 07:48:14;;;;;;;6.07;3.50;;;25.50;99.90;;;;;;5271587;28;20421;-77
2022/06/01 07:50:48;;;;;;;6.30;3.20;;;25.70;99.90;;;;;;5293208;28;20020;-76
2022/06/01 07:53:18;;;;;;;5.47;3.58;;;25.70;99.90;;;;;;5293130;28;20509;-77
2022/06/01 07:55:49;;;;;;;6.47;3.63;;;25.70;99.90;;;;;;5292106;28;20032;-76
2022/06/01 07:58:20;;;;;;;7.22;3.10;;;25.60;99.90;;;;;;5292815;28;20046;-76
2022/06/01 08:00:51;;;;;;;5.28;3.55;;;25.40;99.90;;;;;;5292530;28;20052;-76
2022/06/01 08:03:22;;;;;;;5.75;3.45;;;25.60;99.90;;;;;;5291644;28;20023;-76
2022/06/01 08:05:53;;;;;;;4.80;3.42;;;25.80;99.90;;;;;;5292746;28;20379;-76
2022/06/01 08:08:23;;;;;;;4.82;2.88;;;26.10;99.90;;;;;;5292964;28;20028;-77
2022/06/01 08:10:54;;;;;;;7.45;3.15;;;25.90;99.90;;;;;;5292876;28;20024;-76
2022/06/01 08:13:26;;;;;;;6.38;3.20;;;25.60;99.90;;;;;;5292836;28;20027;-74
2022/06/01 08:15:56;;;;;;;6.85;3.10;;;25.70;99.90;;;;;;5292769;28;20035;-76
2022/06/01 08:18:27;;;;;;;6.22;3.25;;;26.10;99.90;;;;;;5292417;28;20023;-76
2022/06/01 08:20:58;;;;;;;4.65;2.70;;;26.00;99.90;;;;;;5292529;28;20082;-77
2022/06/01 08:23:31;;;;;;;8.38;3.40;;;25.90;99.90;;;;;;5292390;28;20027;-76
2022/06/01 08:26:02;;;;;;;5.82;2.80;;;26.00;99.90;;;;;;5292584;28;20034;-76
2022/06/01 08:28:32;;;;;;;8.52;3.65;;;26.30;99.90;;;;;;5292467;28;20016;-76
2022/06/01 08:31:03;;;;;;;7.68;3.05;;;26.40;99.90;;;;;;5292295;28;20123;-76
2022/06/01 08:33:34;;;;;;;4.28;2.75;;;26.30;99.90;;;;;;5292203;28;20020;-76
2022/06/01 08:36:05;;;;;;;6.03;3.10;;;26.50;99.90;;;;;;5292242;28;20070;-76
2022/06/01 08:38:36;;;;;;;9.77;2.97;;;26.30;99.90;;;;;;5292388;28;20055;-76
2022/06/01 08:41:13;;;;;;;4.30;2.58;;;26.30;99.90;;;;;;5292260;28;20016;-77
2022/06/01 08:43:50;;;;;;;4.95;2.70;;;26.40;99.90;;;;;;5292035;28;20023;-76
2022/06/01 08:46:23;;;;;;;6.80;2.88;;;26.30;99.90;;;;;;5273706;28;20463;-76
2022/06/01 08:48:59;;;;;;;6.70;2.90;;;26.20;99.90;;;;;;5291877;28;20019;-76
2022/06/01 08:51:31;;;;;;;5.82;2.78;;;26.50;99.90;;;;;;5273828;28;20028;-77
2022/06/01 08:54:02;;;;;;;6.55;2.80;;;26.60;99.90;;;;;;5291892;28;20019;-77
2022/06/01 08:56:48;;;;;;;5.72;2.67;;;27.00;99.90;;;;;;5291903;28;20023;-77
2022/06/01 08:59:34;;;;;;;6.47;2.90;;;27.00;99.90;;;;;;5291841;28;20023;-76
2022/06/01 09:02:37;;;;;;;7.82;2.75;;;27.00;99.90;;;;;;5291571;28;20138;-77
2022/06/01 09:05:20;;;;;;;5.43;2.40;;;26.80;99.90;;;;;;5291366;28;20020;-76
2022/06/01 09:08:16;;;;;;;7.47;3.00;;;26.90;99.90;;;;;;5290938;28;20152;-77
2022/06/01 09:11:05;;;;;;;3.28;2.83;;;26.70;99.90;;;;;;5291507;28;20494;-75
2022/06/01 09:13:59;;;;;;;3.47;2.40;;;27.30;99.90;;;;;;5291282;28;20364;-75
2022/06/01 09:16:32;;;;;;;5.65;2.80;;;27.00;99.90;;;;;;5291251;28;20118;-75
2022/06/01 09:19:04;;;;;;;9.40;3.05;;;27.20;99.90;;;;;;5291094;28;20058;-75
2022/06/01 09:24:34;;;;;;;8.15;2.75;;;27.40;99.90;;;;;;5291147;28;20067;-74
2022/06/01 09:27:09;;;;;;;5.53;2.85;;;27.40;99.90;;;;;;5291285;28;20073;-75
2022/06/01 09:29:45;;;;;;;9.45;3.10;;;27.50;99.90;;;;;;5291191;28;20023;-76
2022/06/01 09:32:31;;;;;;;5.28;2.70;;;27.20;99.90;;;;;;5291233;28;20448;-76
2022/06/01 09:35:08;;;;;;;4.50;2.47;;;27.50;99.90;;;;;;5291107;28;20042;-76
2022/06/01 09:37:47;;;;;;;3.47;2.45;;;27.20;99.90;;;;;;5291124;28;20022;-76
2022/06/01 09:40:29;;;;;;;5.60;2.80;;;27.40;99.90;;;;;;5291024;28;20407;-76
2022/06/01 09:43:00;;;;;;;4.57;2.72;;;27.60;99.90;;;;;;5290881;28;20028;-74
2022/06/01 09:45:48;;;;;;;5.72;2.90;;;27.30;99.90;;;;;;5290743;28;20119;-76
2022/06/01 09:48:31;;;;;;;6.25;3.00;;;27.30;99.90;;;;;;5290726;28;20028;-74
2022/06/01 09:51:08;;;;;;;4.95;2.60;;;27.60;99.90;;;;;;5291198;28;20047;-74
2022/06/01 09:53:46;;;;;;;8.80;3.22;;;27.70;99.90;;;;;;5290561;28;20030;-75
2022/06/01 09:56:29;;;;;;;5.68;2.83;;;27.50;99.90;;;;;;5290599;28;20034;-75
2022/06/01 10:07:45;;;;;;;4.70;3.35;;;27.80;99.90;;;;;;5290299;28;20449;-75
2022/06/01 10:10:26;;;;;;;5.57;2.40;;;27.80;99.90;;;;;;5290305;28;20028;-75
2022/06/01 10:12:59;;;;;;;6.18;2.47;;;27.70;99.90;;;;;;5290479;28;20055;-75
2022/06/01 10:15:51;;;;;;;5.03;2.80;;;28.00;99.90;;;;;;5290274;28;20110;-76
2022/06/01 10:18:27;;;;;;;8.40;2.95;;;27.70;99.90;;;;;;5290243;28;20165;-75
2022/06/01 10:21:08;;;;;;;3.88;2.40;;;28.10;99.90;;;;;;5290017;28;20447;-75
2022/06/01 10:23:59;;;;;;;5.75;2.92;;;28.00;99.90;;;;;;5290103;28;20092;-75
2022/06/01 10:26:36;;;;;;;6.38;2.53;;;27.90;99.90;;;;;;5271725;28;20023;-75
2022/06/01 10:29:13;;;;;;;5.72;2.83;;;28.20;99.90;;;;;;5289936;28;20038;-74
2022/06/01 10:31:48;;;;;;;3.42;2.40;;;28.20;99.90;;;;;;5290091;28;20024;-75
2022/06/01 10:34:42;;;;;;;10.10;3.30;;;28.10;99.90;;;;;;5290043;28;20055;-76
2022/06/01 10:37:30;;;;;;;4.18;2.38;;;27.70;99.90;;;;;;5290100;28;20042;-75
2022/06/01 10:40:07;;;;;;;4.45;3.00;;;27.80;99.90;;;;;;5289876;28;20019;-76
2022/06/01 10:45:55;;;;;;;9.15;2.78;;;28.30;99.90;;;;;;5290280;28;20088;-76
2022/06/01 10:48:38;;;;;;;3.75;2.85;;;28.20;99.90;;;;;;5289754;28;20024;-75
2022/06/01 10:51:32;;;;;;;4.18;2.80;;;28.30;99.90;;;;;;5289875;28;20058;-76
2022/06/01 10:54:24;;;;;;;4.93;3.10;;;28.30;99.90;;;;;;5289721;28;20088;-75
2022/06/01 10:56:55;;;;;;;6.43;3.47;;;28.00;99.90;;;;;;5289839;28;20031;-73
2022/06/01 10:59:26;;;;;;;5.70;3.45;;;28.20;99.90;;;;;;5271421;28;20483;-74
2022/06/01 11:02:16;;;;;;;5.43;2.70;;;28.30;99.90;;;;;;5289659;28;20094;-75
2022/06/01 11:04:47;;;;;;;7.65;3.10;;;28.40;99.90;;;;;;5289619;28;20441;-75
2022/06/01 11:07:49;;;;;;;5.38;3.20;;;28.50;99.90;;;;;;5289700;28;20059;-75
2022/06/01 11:10:55;;;;;;;5.45;3.10;;;28.10;99.90;;;;;;5289706;28;20019;-73
2022/06/01 11:13:41;;;;;;;5.47;3.08;;;28.30;99.90;;;;;;5289854;28;20098;-75
2022/06/01 11:16:23;;;;;;;5.97;3.25;;;28.00;99.90;;;;;;5289670;28;20035;-75
2022/06/01 11:19:06;;;;;;;4.15;3.05;;;28.40;99.90;;;;;;5289554;28;20428;-75
2022/06/01 11:22:06;;;;;;;4.53;3.20;;;28.10;99.90;;;;;;5271364;28;20020;-75
2022/06/01 11:25:07;;;;;;;6.55;2.60;;;28.10;99.90;;;;;;5289300;28;20139;-74
2022/06/01 11:28:11;;;;;;;5.47;3.00;;;28.20;99.90;;;;;;5289579;28;20471;-76
2022/06/01 11:31:08;;;;;;;7.10;3.40;;;28.20;99.90;;;;;;5289447;28;20019;-75
2022/06/01 11:33:54;;;;;;;6.22;3.05;;;28.10;99.90;;;;;;5293495;28;20069;-78
2022/06/01 11:36:37;;;;;;;6.25;3.28;;;28.20;99.90;;;;;;5293545;28;20032;-75
2022/06/01 11:39:29;;;;;;;8.82;3.00;;;28.60;99.90;;;;;;5293337;28;20027;-75
2022/06/01 11:42:14;;;;;;;6.88;3.33;;;28.50;99.90;;;;;;5293305;28;20020;-75
2022/06/01 11:45:05;;;;;;;7.10;3.40;;;28.30;99.90;;;;;;5293224;28;20035;-75
2022/06/01 11:47:54;;;;;;;3.70;2.85;;;28.70;99.90;;;;;;5293106;28;20034;-75
2022/06/01 11:50:32;;;;;;;9.35;3.50;;;28.50;99.90;;;;;;5293133;28;20024;-75
2022/06/01 11:53:09;;;;;;;4.27;2.93;;;28.10;99.90;;;;;;5293198;28;20034;-75
2022/06/01 11:55:44;;;;;;;6.53;3.30;;;28.30;99.90;;;;;;5292998;28;20780;-75
2022/06/01 11:58:30;;;;;;;5.38;3.25;;;28.20;99.90;;;;;;5292877;28;20015;-75
2022/06/01 12:01:43;;;;;;;9.27;3.47;;;28.50;99.90;;;;;;5292611;28;20044;-75
2022/06/01 12:04:23;;;;;;;6.78;3.53;;;28.10;99.90;;;;;;5259470;28;20100;-76
2022/06/01 12:07:00;;;;;;;5.88;3.20;;;28.40;99.90;;;;;;5292675;28;20065;-76
2022/06/01 12:09:38;;;;;;;6.10;3.67;;;28.10;99.90;;;;;;5292714;28;20076;-75
2022/06/01 12:12:32;;;;;;;4.78;3.35;;;28.40;99.90;;;;;;5292807;28;20635;-74
2022/06/01 12:15:16;;;;;;;6.43;3.88;;;28.30;99.90;;;;;;5292689;28;20450;-75
2022/06/01 12:18:29;;;;;;;5.60;3.78;;;28.10;99.90;;;;;;5292469;28;20100;-75
2022/06/01 12:21:18;;;;;;;6.72;3.83;;;27.80;99.90;;;;;;5292381;28;20028;-76
2022/06/01 12:28:31;;;;;;;7.28;4.32;;;28.00;99.90;;;;;;5253984;28;20031;-75
2022/06/01 12:30:06;;;;;;;8.40;3.70;;;28.20;99.90;;;;;;5292087;28;20059;-75
2022/06/01 12:33:08;;;;;;;4.45;3.80;;;27.90;99.90;;;;;;5292323;28;20027;-76
2022/06/01 12:35:47;;;;;;;5.18;3.50;;;27.90;99.90;;;;;;5292064;28;20066;-75
2022/06/01 12:38:36;;;;;;;8.30;4.03;;;28.20;99.90;;;;;;5292307;28;20019;-74
2022/06/01 12:41:16;;;;;;;5.65;4.05;;;27.70;99.90;;;;;;5292057;28;20059;-75
2022/06/01 14:14:40;;;;;;;5.90;3.85;;;27.40;99.90;;;;;;5308510;27;21428;-66
2022/06/01 14:17:13;;;;;;;8.23;4.20;;;28.00;99.90;;;;;;5308557;28;20030;-67
2022/06/01 14:19:44;;;;;;;7.63;4.07;;;27.90;99.90;;;;;;5308376;28;20023;-66
2022/06/01 14:22:16;;;;;;;10.98;4.72;;;27.90;99.90;;;;;;5308349;28;20022;-67
2022/06/01 14:30:25;;;;;;;9.82;4.10;;;27.50;99.90;;;;;;5308565;28;20035;-68
2022/06/01 14:32:56;;;;;;;9.20;3.92;;;27.30;99.90;;;;;;5289892;28;20020;-69
2022/06/01 14:35:31;;;;;;;6.28;4.10;;;27.10;99.90;;;;;;5308002;28;20065;-68
2022/06/01 14:38:02;;;;;;;5.82;3.70;;;27.00;99.90;;;;;;5313232;27;20371;-74
2022/06/01 14:40:34;;;;;;;4.93;3.70;;;27.20;99.90;;;;;;5326287;27;20027;-69
2022/06/01 14:43:07;;;;;;;7.50;4.25;;;26.90;99.90;;;;;;5329150;27;20121;-67
2022/06/01 14:45:38;;;;;;;11.23;3.92;;;26.70;99.90;;;;;;5329313;27;20033;-67
2022/06/01 14:48:09;;;;;;;7.68;3.70;;;26.80;99.90;;;;;;5329297;27;20019;-66
2022/06/01 14:50:40;;;;;;;11.73;4.03;;;27.00;99.90;;;;;;5328068;27;20500;-67
2022/06/01 14:53:26;;;;;;;9.90;4.43;;;26.90;99.90;;;;;;5329158;27;20027;-67
2022/06/01 14:55:57;;;;;;;7.30;3.92;;;26.60;99.90;;;;;;5321753;27;20034;-73
2022/06/01 14:58:28;;;;;;;6.38;4.22;;;26.40;99.90;;;;;;5309632;27;20031;-68
2022/06/01 15:01:09;;;;;;;8.95;3.90;;;26.50;99.90;;;;;;5307647;27;20024;-75
2022/06/01 15:03:44;;;;;;;5.93;4.10;;;26.30;99.90;;;;;;5307227;27;20099;-68
2022/06/01 15:06:17;;;;;;;7.28;4.20;;;26.80;99.90;;;;;;5307525;27;20478;-75
2022/06/01 15:08:48;;;;;;;10.15;4.57;;;26.50;99.90;;;;;;5307710;27;20072;-68
2022/06/01 15:11:19;;;;;;;11.52;4.65;;;26.40;99.90;;;;;;5307322;28;20086;-68
2022/06/01 15:13:50;;;;;;;9.80;4.55;;;26.40;99.90;;;;;;5302386;27;20516;-68
2022/06/01 15:16:20;;;;;;;7.90;4.43;;;26.30;99.90;;;;;;5290674;28;20072;-69
2022/06/01 15:18:58;;;;;;;6.50;4.38;;;26.30;99.90;;;;;;5309959;27;20106;-68
2022/06/01 15:21:29;;;;;;;7.28;4.22;;;26.20;99.90;;;;;;5314449;27;20371;-67
2022/06/01 15:24:00;;;;;;;10.27;4.50;;;26.10;99.90;;;;;;5301265;27;20027;-73
2022/06/01 15:26:30;;;;;;;8.23;4.30;;;25.70;99.90;;;;;;5292765;28;20030;-73
2022/06/01 15:30:57;;;;;;;6.80;4.38;;;25.80;99.90;;;;;;5292885;28;20027;-66
2022/06/01 15:40:19;;;;;;;8.07;5.65;;;25.10;99.90;;;;;;5280822;28;20038;-68
2022/06/01 15:42:50;;;;;;;11.18;5.07;;;25.00;99.90;;;;;;5292076;28;20380;-69